Hlavní strana
METAR-TAF:

METAR-TAF

Letiště :

Fort-de-France, Martinik

zeměpisná šířka: 14-36N, zeměpisná délka: 061-00W, výška: 5 m

Aktuální stav počasí

Zpráva byla vytvořena před 10 minutami, v 09:30 UTC
Východojihovýchodní vítr 3 kt
Teplota 24°C
Vlhkost vzduchu 94%
Tlak 1015 hPa
Viditelnost 10 km a více
Polojasno ve výšce 2100 ft
Polojasno ve výšce 3700 ft
Oblačno až skoro zataženo ve výšce 18000 ft

METAR: TFFF 060930Z AUTO 12003KT 9999 SCT021 SCT037 BKN180 24/23 Q1015 NOSIG

Čas: 05:40 (09:40 UTC)

Předpověď počasí

Zpráva byla vytvořena před 4 hodinami a 40 minutami, v 05:00 UTC
Předpověď platná od 06 v 06 UTC do 07 v 06 UTC
Východojihovýchodní vítr 10 kt
Viditelnost 10 km a více
Polojasno ve výšce 3000 ft
Dočasný
od 06 v 06 UTC do 06 v 12 UTC
vítr z různých směrů 2 kt
Dočasný
od 07 v 00 UTC do 07 v 06 UTC
vítr z různých směrů 2 kt

TAF: TFFF 060500Z 0606/0706 11010KT 9999 SCT030 TEMPO 0606/0612 VRB02KT TEMPO 0700/0706 VRB02KT

Stav a předpovědi počasí z více než 4 000 letišť (zprávy METAR a TAF).

Červené a žluté tečky na mapě představují dostupné meteorologické stanice.

Když kurzor umístíte na tečku, zobrazí se název stanice.

Pak kliknutím zobrazíte stav a předpověď počasí.

Chcete-li změnit mapu, kliknutím na zelené tlačítko se znaménkem +mapu přiblížíte, kliknutím na zelené tlačítko se znaménkem – mapu oddálíte a kliknutím na zelené šipky přejdete na sousední mapy.


METAR-TAF: